.
WxDataArchive / Data Records for 2012-05-29
2012-05-28 May 2012 2012-05-30

Data Records for Tuesday, 29 May 2012

Time	Temp	Chill	HIndex	Humid	Dewpt	 Wind 	HiWind	WindDir	Rain 	Barom 
-----	----	-----	------	-----	-----	------	------	-------	-----	----- 
00:00	82.6	82.6	83.8	52	63.2	0	2	248	0.00	29.751 
00:05	82.4	82.4	83.5	52	63.0	0	2	248	0.00	29.751 
00:10	82.4	82.4	83.7	53	63.5	0	2	248	0.00	29.751 
00:15	82.2	82.2	83.5	53	63.3	1	4	248	0.00	29.744 
00:20	82.2	82.2	83.5	53	63.3	1	4	248	0.00	29.744 
00:25	82.4	82.4	83.7	53	63.5	1	5	315	0.00	29.744 
00:30	82.4	82.4	83.9	54	64.1	1	4	112	0.00	29.740 
00:35	82.2	82.2	83.6	54	63.9	1	3	90	0.00	29.740 
00:40	82.2	82.2	83.6	54	63.9	1	3	292	0.00	29.740 
00:45	82.2	82.2	83.6	54	63.9	1	4	248	0.00	29.739 
00:50	82.2	82.2	83.6	54	63.9	1	4	202	0.00	29.739 
00:55	82.0	82.0	83.6	55	64.2	1	2	315	0.00	29.739 
01:00	81.8	81.8	83.3	55	64.0	1	2	315	0.00	29.737 
01:05	81.8	81.8	83.3	55	64.0	1	4	315	0.00	29.737 
01:10	81.6	81.6	83.2	56	64.4	1	3	248	0.00	29.737 
01:15	81.6	81.6	83.2	56	64.4	1	4	270	0.00	29.733 
01:20	81.6	81.6	83.4	57	64.9	1	4	270	0.00	29.733 
01:25	81.4	81.4	83.1	57	64.7	1	3	270	0.00	29.733 
01:30	81.4	81.4	83.1	57	64.7	1	5	270	0.00	29.725 
01:35	81.2	81.2	83.0	58	65.0	1	3	270	0.00	29.725 
01:40	81.2	81.2	83.0	58	65.0	1	2	270	0.00	29.725 
01:45	81.2	81.2	83.0	58	65.0	1	4	270	0.00	29.725 
01:50	81.1	81.1	82.9	58	64.9	1	3	68	0.00	29.725 
01:55	80.9	80.9	82.7	58	64.7	1	3	248	0.00	29.725 
02:00	80.9	80.9	82.8	59	65.2	1	4	248	0.00	29.724 
02:05	80.7	80.7	82.5	59	65.0	0	2	248	0.00	29.724 
02:10	80.7	80.7	82.5	59	65.0	1	3	248	0.00	29.724 
02:15	80.5	80.5	82.3	59	64.8	1	4	248	0.00	29.722 
02:20	80.7	80.7	82.5	59	65.0	1	4	292	0.00	29.722 
02:25	80.7	80.7	82.5	59	65.0	1	2	292	0.00	29.722 
02:30	80.5	80.5	82.3	59	64.8	1	3	292	0.00	29.715 
02:35	80.5	80.5	82.3	59	64.8	1	3	248	0.00	29.715 
02:40	80.5	80.5	82.4	60	65.3	1	3	248	0.00	29.715 
02:45	80.5	80.5	82.4	60	65.3	1	4	248	0.00	29.710 
02:50	80.3	80.3	82.2	60	65.1	0	2	248	0.00	29.710 
02:55	80.3	80.3	82.2	60	65.1	1	3	248	0.00	29.710 
03:00	80.1	80.1	81.9	60	64.9	0	2	248	0.00	29.709 
03:05	80.1	80.1	82.0	61	65.4	1	3	248	0.00	29.709 
03:10	79.9	79.9	81.8	61	65.2	1	5	248	0.00	29.709 
03:15	79.9	79.9	81.8	61	65.2	1	4	248	0.00	29.708 
03:20	79.8	79.8	81.7	61	65.1	0	2	248	0.00	29.708 
03:25	79.6	79.6	81.4	61	64.9	0	2	248	0.00	29.708 
03:30	79.6	79.6	81.4	61	64.9	1	3	248	0.00	29.709 
03:35	79.6	79.6	81.5	62	65.4	0	3	248	0.00	29.709 
03:40	79.4	79.4	81.3	62	65.2	0	3	248	0.00	29.709 
03:45	79.4	79.4	81.3	62	65.2	0	1	248	0.00	29.708 
03:50	79.2	79.2	81.1	62	65.0	0	3	248	0.00	29.708 
03:55	79.2	79.2	81.1	62	65.0	0	2	248	0.00	29.708 
04:00	79.0	79.0	80.8	62	64.8	0	2	248	0.00	29.706 
04:05	78.8	78.8	80.7	63	65.1	0	1	248	0.00	29.706 
04:10	78.6	78.6	80.4	63	64.9	0	2	248	0.00	29.706 
04:15	78.6	78.6	80.4	63	64.9	0	1	248	0.00	29.699 
04:20	78.5	78.5	80.4	64	65.3	0	1	248	0.00	29.699 
04:25	78.3	78.3	80.2	64	65.1	0	1	248	0.00	29.699 
04:30	78.3	78.3	80.2	64	65.1	0	2	248	0.00	29.701 
04:35	78.1	78.1	79.9	64	64.9	0	1	248	0.00	29.701 
04:40	78.1	78.1	80.0	65	65.4	0	1	248	0.00	29.701 
04:45	78.1	78.1	80.0	65	65.4	0	1	248	0.00	29.694 
04:50	78.1	78.1	80.0	65	65.4	0	2	248	0.00	29.694 
04:55	78.1	78.1	80.0	65	65.4	0	2	248	0.00	29.694 
05:00	78.3	78.3	80.2	64	65.1	0	2	248	0.00	29.707 
05:05	78.3	78.3	80.2	65	65.5	0	1	248	0.00	29.707 
05:10	78.3	78.3	80.2	65	65.5	0	1	248	0.00	29.707 
05:15	78.1	78.1	80.0	65	65.4	0	2	248	0.00	29.709 
05:20	78.3	78.3	80.2	65	65.5	1	3	248	0.00	29.709 
05:25	78.5	78.5	80.4	65	65.7	1	3	248	0.00	29.709 
05:30	78.5	78.5	80.4	65	65.7	2	4	248	0.00	29.700 
05:35	78.3	78.3	80.2	66	66.0	2	3	248	0.00	29.700 
05:40	77.7	77.7	79.6	68	66.3	3	4	270	0.00	29.700 
05:45	76.8	76.8	78.5	70	66.3	3	6	270	0.00	29.695 
05:50	76.1	76.1	77.6	73	66.8	2	5	270	0.01	29.695 
05:55	75.4	75.4	76.6	75	66.9	0	2	270	0.00	29.695 
06:00	74.9	74.9	74.9	78	67.6	0	1	270	0.01	29.712 
06:05	74.0	74.0	74.0	80	67.4	0	1	270	0.00	29.712 
06:10	73.3	73.3	73.3	81	67.1	0	1	270	0.00	29.712 
06:15	73.0	73.0	73.0	83	67.5	0	1	270	0.00	29.716 
06:20	72.7	72.7	72.7	84	67.6	0	1	270	0.00	29.716 
06:25	72.5	72.5	72.5	84	67.4	0	1	270	0.00	29.716 
06:30	72.5	72.5	72.5	84	67.4	0	2	270	0.00	29.721 
06:35	72.5	72.5	72.5	84	67.4	0	1	270	0.00	29.721 
06:40	72.5	72.5	72.5	84	67.4	1	3	270	0.00	29.721 
06:45	72.5	72.5	72.5	83	67.0	1	3	270	0.00	29.715 
06:50	72.5	72.5	72.5	83	67.0	1	2	270	0.00	29.715 
06:55	72.5	72.5	72.5	83	67.0	1	3	270	0.00	29.715 
07:00	72.3	72.3	72.3	83	66.8	1	4	270	0.01	29.737 
07:05	72.3	72.3	72.3	83	66.8	0	2	270	0.00	29.737 
07:10	72.3	72.3	72.3	83	66.8	0	2	270	0.00	29.737 
07:15	72.1	72.1	72.1	83	66.6	0	2	270	0.00	29.736 
07:20	72.0	72.0	72.0	81	65.8	0	1	270	0.00	29.736 
07:25	71.8	71.8	71.8	81	65.6	0	0	---	0.00	29.736 
07:30	71.8	71.8	71.8	81	65.6	0	2	270	0.00	29.723 
07:35	71.8	71.8	71.8	81	65.6	0	2	270	0.00	29.723 
07:40	71.8	71.8	71.8	81	65.6	0	1	270	0.00	29.723 
07:45	71.6	71.6	71.6	81	65.4	0	1	270	0.00	29.764 
07:50	71.6	71.6	71.6	82	65.8	0	0	---	0.00	29.764 
07:55	71.5	71.5	71.5	81	65.4	0	1	270	0.00	29.764 
08:00	71.5	71.5	71.5	81	65.4	0	1	270	0.00	29.768 
08:05	71.6	71.6	71.6	81	65.4	0	2	292	0.00	29.768 
08:10	71.5	71.5	71.5	82	65.7	0	1	292	0.00	29.768 
08:15	71.5	71.5	71.5	82	65.7	0	1	292	0.00	29.793 
08:20	71.3	71.3	71.3	82	65.5	0	1	292	0.00	29.793 
08:25	71.1	71.1	71.1	82	65.3	0	4	292	0.00	29.793 
08:30	70.8	70.8	70.8	82	65.0	1	4	248	0.00	29.803 
08:35	70.6	70.6	70.6	82	64.8	1	3	248	0.00	29.803 
08:40	70.4	70.4	70.4	82	64.6	1	3	248	0.00	29.803 
08:45	70.3	70.3	70.3	82	64.5	1	3	248	0.00	29.815 
08:50	70.1	70.1	70.1	83	64.7	0	2	270	0.00	29.815 
08:55	70.1	70.1	70.1	83	64.7	0	1	270	0.00	29.815 
09:00	70.1	70.1	70.1	83	64.7	0	2	270	0.00	29.813 
09:05	69.9	69.9	69.9	83	64.5	1	5	270	0.00	29.813 
09:10	69.9	69.9	69.9	84	64.8	0	2	270	0.00	29.813 
09:15	69.9	69.9	69.9	84	64.8	0	1	270	0.00	29.804 
09:20	69.9	69.9	69.9	85	65.2	0	1	270	0.00	29.804 
09:25	69.9	69.9	69.9	86	65.5	0	1	270	0.00	29.804 
09:30	69.9	69.9	69.9	86	65.5	0	1	270	0.00	29.802 
09:35	69.8	69.8	69.8	87	65.7	0	1	270	0.00	29.802 
09:40	69.8	69.8	69.8	87	65.7	0	1	270	0.00	29.802 
09:45	69.8	69.8	69.8	87	65.7	0	1	270	0.00	29.799 
09:50	69.9	69.9	69.9	88	66.2	0	1	270	0.00	29.799 
09:55	70.1	70.1	70.1	88	66.4	0	1	270	0.00	29.799 
10:00	70.3	70.3	70.3	87	66.2	0	1	270	0.00	29.802 
10:05	70.8	70.8	70.8	88	67.1	0	2	270	0.00	29.802 
10:10	71.3	71.3	71.3	86	66.9	1	4	270	0.00	29.802 
10:15	71.3	71.3	71.3	84	66.2	1	3	338	0.00	29.802 
10:20	71.6	71.6	71.6	84	66.5	0	1	338	0.00	29.802 
10:25	72.0	72.0	72.0	82	66.2	1	3	338	0.00	29.802 
10:30	72.3	72.3	72.3	81	66.1	1	4	315	0.00	29.822 
10:35	72.5	72.5	72.5	78	65.2	2	4	315	0.00	29.822 
10:40	72.5	72.5	72.5	77	64.9	2	5	270	0.00	29.822 
10:45	72.7	72.7	72.7	77	65.1	2	4	270	0.00	29.834 
10:50	72.8	72.8	72.8	77	65.2	2	4	270	0.00	29.834 
10:55	72.7	72.7	72.7	75	64.3	1	3	270	0.00	29.834 
11:00	72.7	72.7	72.7	72	63.1	2	4	315	0.00	29.831 
11:05	73.0	73.0	73.0	72	63.4	1	3	315	0.00	29.831 
11:10	73.2	73.2	73.2	69	62.4	1	2	315	0.00	29.831 
11:15	73.5	73.5	73.5	69	62.7	1	4	292	0.00	29.822 
11:20	73.7	73.7	73.7	68	62.5	2	3	292	0.00	29.822 
11:25	73.7	73.7	73.7	66	61.6	2	4	292	0.00	29.822 
11:30	73.7	73.7	73.7	62	59.9	1	3	292	0.00	29.829 
11:35	73.7	73.7	73.7	61	59.4	1	3	315	0.00	29.829 
11:40	73.5	73.5	73.5	60	58.7	1	2	315	0.00	29.829 
11:45	73.7	73.7	73.7	59	58.5	1	3	315	0.00	29.817 
11:50	74.2	74.2	74.2	57	58.0	2	3	315	0.00	29.817 
11:55	74.7	74.7	74.7	56	57.9	1	5	270	0.00	29.817 
12:00	75.1	75.1	77.6	56	58.3	1	4	270	0.00	29.820 
12:05	75.1	75.1	77.6	56	58.3	1	3	270	0.00	29.820 
12:10	75.3	75.3	77.7	54	57.5	1	4	338	0.00	29.820 
12:15	75.4	75.4	77.8	53	57.1	1	4	338	0.00	29.823 
12:20	75.8	75.8	78.0	51	56.4	2	5	270	0.00	29.823 
12:25	76.7	76.7	78.5	52	57.7	2	4	270	0.00	29.823 
12:30	76.8	76.8	78.4	47	55.0	1	4	270	0.00	29.815 
12:35	76.5	76.5	78.3	47	54.7	1	4	270	0.00	29.815 
12:40	76.5	76.5	78.2	45	53.6	2	4	270	0.00	29.815 
12:45	76.3	76.3	78.0	43	52.1	3	5	270	0.00	29.816 
12:50	76.3	76.3	78.0	42	51.5	2	4	270	0.00	29.816 
12:55	76.5	76.5	78.0	40	50.4	3	5	292	0.00	29.816 
13:00	77.4	77.4	78.5	41	51.8	2	4	248	0.00	29.816 
13:05	77.9	77.9	78.6	39	50.9	2	5	248	0.00	29.816 
13:10	78.3	78.3	78.6	35	48.4	2	4	248	0.00	29.816 
13:15	78.8	78.8	78.6	31	45.6	1	3	315	0.00	29.810 
13:20	79.8	79.8	79.1	31	46.5	1	3	315	0.00	29.810 
13:25	80.3	80.3	79.2	28	44.2	2	5	270	0.00	29.810 
13:30	80.7	80.7	79.8	33	48.9	1	3	315	0.00	29.804 
13:35	80.9	80.9	79.7	29	45.6	2	5	270	0.00	29.804 
13:40	80.9	80.9	79.8	31	47.4	1	5	270	0.00	29.804 
13:45	80.9	80.9	79.7	30	46.5	1	3	270	0.00	29.798 
13:50	81.4	81.4	80.0	29	46.1	1	5	270	0.00	29.798 
13:55	81.2	81.2	79.7	27	44.0	2	3	248	0.00	29.798 
14:00	81.6	81.6	80.1	28	45.3	0	2	248	0.00	29.796 
14:05	82.2	82.2	80.4	27	44.9	1	3	248	0.00	29.796 
14:10	82.4	82.4	80.5	27	45.0	1	4	248	0.00	29.796 
14:15	82.4	82.4	80.5	27	45.0	2	4	292	0.00	29.784 
14:20	82.2	82.2	80.4	27	44.9	2	3	292	0.00	29.784 
14:25	82.6	82.6	80.7	27	45.2	2	4	292	0.00	29.784 
14:30	82.8	82.8	80.8	27	45.4	1	3	270	0.00	29.786 
14:35	82.8	82.8	80.9	28	46.3	1	3	270	0.00	29.786 
14:40	83.2	83.2	81.1	27	45.7	1	3	270	0.00	29.786 
14:45	83.6	83.6	81.2	24	43.0	1	3	270	0.00	29.777 
14:50	83.6	83.6	81.3	26	45.1	1	3	270	0.00	29.777 
14:55	83.6	83.6	81.2	24	43.0	1	4	270	0.00	29.777 
15:00	84.0	84.0	81.5	24	43.3	1	5	90	0.00	29.766 
15:05	84.1	84.1	81.5	22	41.1	1	3	248	0.00	29.766 
15:10	84.1	84.1	81.5	23	42.3	1	3	248	0.00	29.766 
15:15	84.0	84.0	81.6	26	45.4	1	2	248	0.00	29.767 
15:20	84.7	84.7	82.4	28	48.0	1	2	248	0.00	29.767 
15:25	85.3	85.3	82.6	25	45.5	1	3	248	0.00	29.767 
15:30	85.3	85.3	82.6	25	45.5	1	3	90	0.00	29.762 
15:35	85.1	85.1	82.4	25	45.3	0	3	90	0.00	29.762 
15:40	84.9	84.9	82.4	26	46.2	1	3	90	0.00	29.762 
15:45	85.1	85.1	82.4	24	44.2	1	3	90	0.00	29.751 
15:50	84.9	84.9	82.3	25	45.1	1	5	270	0.00	29.751 
15:55	85.3	85.3	82.5	24	44.4	1	4	112	0.00	29.751 
16:00	84.9	84.9	82.2	24	44.1	2	4	292	0.00	29.751 
16:05	84.5	84.5	82.0	25	44.8	0	2	292	0.00	29.751 
16:10	84.7	84.7	82.1	25	45.0	0	2	292	0.00	29.751 
16:15	85.1	85.1	82.4	24	44.2	1	3	315	0.00	29.751 
16:20	85.5	85.5	82.8	25	45.6	1	4	315	0.00	29.751 
16:25	85.9	85.9	83.1	25	46.0	1	3	292	0.00	29.751 
16:30	86.1	86.1	83.0	22	42.8	1	4	270	0.00	29.750 
16:35	85.9	85.9	82.9	22	42.6	1	5	270	0.00	29.750 
16:40	85.5	85.5	82.7	24	44.6	2	5	292	0.00	29.750 
16:45	85.5	85.5	82.7	24	44.6	2	5	270	0.00	29.750 
16:50	85.5	85.5	82.6	23	43.4	2	5	292	0.00	29.750 
16:55	85.5	85.5	82.5	22	42.3	3	9	270	0.00	29.750 
17:00	84.9	84.9	82.1	22	41.8	3	5	270	0.00	29.753 
17:05	84.7	84.7	82.0	23	42.8	3	5	270	0.00	29.753 
17:10	85.1	85.1	82.3	23	43.1	3	10	292	0.00	29.753 
17:15	84.9	84.9	82.3	25	45.1	3	9	270	0.00	29.752 
17:20	85.3	85.3	82.5	24	44.4	2	5	270	0.00	29.752 
17:25	85.1	85.1	82.4	24	44.2	3	6	338	0.00	29.752 
17:30	84.7	84.7	82.0	24	43.9	3	5	270	0.00	29.752 
17:35	84.5	84.5	82.0	25	44.8	2	5	292	0.00	29.752 
17:40	84.9	84.9	82.3	25	45.1	3	5	270	0.00	29.752 
17:45	84.7	84.7	82.2	26	46.0	2	5	270	0.00	29.751 
17:50	84.7	84.7	82.1	25	45.0	3	7	270	0.00	29.751 
17:55	84.5	84.5	82.0	25	44.8	3	7	270	0.00	29.751 
18:00	84.3	84.3	81.8	25	44.6	3	6	292	0.00	29.752 
18:05	84.1	84.1	81.7	25	44.4	2	4	315	0.00	29.752 
18:10	84.1	84.1	81.7	25	44.4	3	6	270	0.00	29.752 
18:15	84.1	84.1	81.7	25	44.4	2	5	270	0.00	29.753 
18:20	84.3	84.3	81.8	25	44.6	2	5	270	0.00	29.753 
18:25	84.1	84.1	81.5	23	42.3	5	10	270	0.00	29.753 
18:30	83.4	83.4	81.1	24	42.8	3	5	270	0.00	29.755 
18:35	82.8	82.8	80.7	25	43.4	2	4	315	0.00	29.755 
18:40	83.0	83.0	80.9	26	44.6	2	7	270	0.00	29.755 
18:45	83.6	83.6	81.4	27	46.1	2	4	270	0.00	29.745 
18:50	83.8	83.8	81.4	25	44.2	3	6	270	0.00	29.745 
18:55	83.6	83.6	81.3	25	44.0	3	6	270	0.00	29.745 
19:00	83.4	83.4	81.1	25	43.9	2	5	270	0.00	29.744 
19:05	83.4	83.4	81.1	24	42.8	2	5	270	0.00	29.744 
19:10	83.2	83.2	80.8	23	41.5	3	6	270	0.00	29.744 
19:15	83.0	83.0	80.8	24	42.5	3	7	270	0.00	29.746 
19:20	82.8	82.8	80.6	24	42.3	3	7	270	0.00	29.746 
19:25	82.8	82.8	80.6	24	42.3	2	5	270	0.00	29.746 
19:30	82.6	82.6	80.7	27	45.2	2	5	270	0.00	29.750 
19:35	82.6	82.6	80.5	24	42.1	3	5	270	0.00	29.750 
19:40	82.4	82.4	80.3	24	42.0	2	5	270	0.00	29.750 
19:45	82.2	82.2	80.3	25	42.9	2	4	270	0.00	29.748 
19:50	82.0	82.0	80.1	25	42.7	2	4	270	0.00	29.748 
19:55	81.8	81.8	80.1	26	43.5	2	6	315	0.00	29.748 
20:00	81.6	81.6	79.9	26	43.4	2	5	248	0.00	29.744 
20:05	81.4	81.4	79.8	26	43.2	2	4	248	0.00	29.744 
20:10	81.4	81.4	79.8	26	43.2	2	6	315	0.00	29.744 
20:15	81.2	81.2	79.7	27	44.0	1	3	270	0.00	29.747 
20:20	81.1	81.1	79.7	27	43.9	1	3	270	0.00	29.747 
20:25	80.9	80.9	79.5	27	43.8	1	4	270	0.00	29.747 
20:30	80.7	80.7	79.5	28	44.5	1	4	270	0.00	29.747 
20:35	80.5	80.5	79.4	28	44.4	1	4	270	0.00	29.747 
20:40	80.1	80.1	79.1	27	43.1	1	2	270	0.00	29.747 
20:45	79.8	79.8	78.9	28	43.8	0	2	270	0.00	29.748 
20:50	79.4	79.4	78.7	28	43.4	0	1	270	0.00	29.748 
20:55	78.8	78.8	78.5	29	43.8	0	1	270	0.00	29.748 
21:00	78.6	78.6	78.4	29	43.7	0	1	270	0.00	29.749 
21:05	78.3	78.3	78.3	30	44.3	0	1	270	0.00	29.749 
21:10	77.9	77.9	78.1	31	44.8	0	1	270	0.00	29.749 
21:15	77.4	77.4	77.9	31	44.4	0	1	270	0.00	29.752 
21:20	77.0	77.0	77.8	32	44.9	0	1	270	0.00	29.752 
21:25	76.7	76.7	77.7	33	45.4	0	0	---	0.00	29.752 
21:30	76.1	76.1	77.6	34	45.7	0	0	---	0.00	29.754 
21:35	75.8	75.8	77.5	35	46.2	0	0	---	0.00	29.754 
21:40	75.3	75.3	77.3	34	45.0	0	0	---	0.00	29.754 
21:45	74.9	74.9	74.9	35	45.4	0	0	---	0.00	29.762 
21:50	74.7	74.7	74.7	36	46.0	0	0	---	0.00	29.762 
21:55	74.4	74.4	74.4	37	46.4	0	0	---	0.00	29.762 
22:00	73.9	73.9	73.9	38	46.7	0	1	270	0.00	29.765 
22:05	73.9	73.9	73.9	38	46.7	0	1	270	0.00	29.765 
22:10	73.7	73.7	73.7	39	47.2	0	0	---	0.00	29.765 
22:15	73.5	73.5	73.5	39	47.0	0	0	---	0.00	29.767 
22:20	73.3	73.3	73.3	39	46.8	0	0	---	0.00	29.767 
22:25	73.0	73.0	73.0	40	47.2	0	0	---	0.00	29.767 
22:30	72.7	72.7	72.7	39	46.3	0	1	270	0.00	29.775 
22:35	73.0	73.0	73.0	38	45.9	0	2	270	0.00	29.775 
22:40	73.2	73.2	73.2	38	46.1	0	1	270	0.00	29.775 
22:45	73.2	73.2	73.2	37	45.4	0	0	---	0.00	29.779 
22:50	73.2	73.2	73.2	37	45.4	0	0	---	0.00	29.779 
22:55	73.0	73.0	73.0	38	45.9	0	0	---	0.00	29.779 
23:00	72.5	72.5	72.5	39	46.1	0	0	---	0.00	29.782 
23:05	72.3	72.3	72.3	38	45.3	0	2	270	0.00	29.782 
23:10	72.8	72.8	72.8	35	43.5	2	4	315	0.00	29.782 
23:15	73.9	73.9	73.9	35	44.5	2	5	292	0.00	29.791 
23:20	73.9	73.9	73.9	35	44.5	1	2	292	0.00	29.791 
23:25	73.5	73.5	73.5	35	44.2	0	3	292	0.00	29.791 
23:30	73.2	73.2	73.2	35	43.9	0	2	292	0.00	29.794 
23:35	72.8	72.8	72.8	36	44.3	0	2	292	0.00	29.794 
23:40	72.3	72.3	72.3	35	43.1	1	4	292	0.00	29.794 
23:45	72.1	72.1	72.1	34	42.2	1	4	292	0.00	29.797 
23:50	72.0	72.0	72.0	34	42.1	1	4	292	0.00	29.797 
23:55	71.5	71.5	71.5	36	43.1	0	1	292	0.00	29.797 

CoCoRaHS
IN-AL-39
A2 Web Hosting
Creative Commons License
GoDaddy
search engine by freefind advanced

loaded 2018-11-22 05:45:36 • last modified 2010-11-18 10:43:29
Privacy PolicyDisclaimer
• wx.awcolley.com is powered by PmWiki v.2002016 •
• all content (unless otherwise noted) © 2018 A W Colley